sensor_id;sensor_type;location;lat;lon;timestamp;P1;durP1;ratioP1;P2;durP2;ratioP2
58372;SDS011;44177;43.356;27.672;2023-02-27T00:00:41;4.70;;;2.38;;
58372;SDS011;44177;43.356;27.672;2023-02-27T00:03:06;10.02;;;2.65;;
58372;SDS011;44177;43.356;27.672;2023-02-27T00:05:32;4.90;;;2.40;;
58372;SDS011;44177;43.356;27.672;2023-02-27T00:07:57;7.57;;;2.65;;
58372;SDS011;44177;43.356;27.672;2023-02-27T00:10:23;5.20;;;2.75;;
58372;SDS011;44177;43.356;27.672;2023-02-27T00:12:48;7.68;;;2.60;;
58372;SDS011;44177;43.356;27.672;2023-02-27T00:15:15;7.45;;;2.75;;
58372;SDS011;44177;43.356;27.672;2023-02-27T00:17:42;6.75;;;2.78;;
58372;SDS011;44177;43.356;27.672;2023-02-27T00:20:09;4.82;;;2.28;;
58372;SDS011;44177;43.356;27.672;2023-02-27T00:22:36;7.07;;;2.40;;
58372;SDS011;44177;43.356;27.672;2023-02-27T00:25:03;4.45;;;2.30;;
58372;SDS011;44177;43.356;27.672;2023-02-27T00:27:29;5.93;;;2.63;;
58372;SDS011;44177;43.356;27.672;2023-02-27T00:29:56;6.57;;;2.72;;
58372;SDS011;44177;43.356;27.672;2023-02-27T00:32:22;6.55;;;2.33;;
58372;SDS011;44177;43.356;27.672;2023-02-27T00:34:47;6.43;;;2.80;;
58372;SDS011;44177;43.356;27.672;2023-02-27T00:37:13;6.05;;;2.20;;
58372;SDS011;44177;43.356;27.672;2023-02-27T00:39:38;4.38;;;2.58;;
58372;SDS011;44177;43.356;27.672;2023-02-27T00:42:04;7.78;;;2.53;;
58372;SDS011;44177;43.356;27.672;2023-02-27T00:44:29;5.32;;;2.65;;
58372;SDS011;44177;43.356;27.672;2023-02-27T00:46:55;5.85;;;2.42;;
58372;SDS011;44177;43.356;27.672;2023-02-27T00:49:20;6.03;;;2.80;;
58372;SDS011;44177;43.356;27.672;2023-02-27T00:51:46;6.53;;;2.35;;
58372;SDS011;44177;43.356;27.672;2023-02-27T00:54:11;6.60;;;2.55;;
58372;SDS011;44177;43.356;27.672;2023-02-27T00:56:37;7.05;;;2.47;;
58372;SDS011;44177;43.356;27.672;2023-02-27T00:59:02;6.47;;;2.90;;
58372;SDS011;44177;43.356;27.672;2023-02-27T01:01:28;5.78;;;2.33;;
58372;SDS011;44177;43.356;27.672;2023-02-27T01:03:53;6.78;;;2.08;;
58372;SDS011;44177;43.356;27.672;2023-02-27T01:06:19;6.85;;;2.70;;
58372;SDS011;44177;43.356;27.672;2023-02-27T01:08:45;4.72;;;2.20;;
58372;SDS011;44177;43.356;27.672;2023-02-27T01:11:10;6.35;;;2.42;;
58372;SDS011;44177;43.356;27.672;2023-02-27T01:13:36;5.57;;;2.40;;
58372;SDS011;44177;43.356;27.672;2023-02-27T01:16:01;7.07;;;2.67;;
58372;SDS011;44177;43.356;27.672;2023-02-27T01:18:27;6.07;;;2.65;;
58372;SDS011;44177;43.356;27.672;2023-02-27T01:20:53;6.80;;;2.15;;
58372;SDS011;44177;43.356;27.672;2023-02-27T01:23:20;10.10;;;2.55;;
58372;SDS011;44177;43.356;27.672;2023-02-27T01:25:47;5.78;;;2.42;;
58372;SDS011;44177;43.356;27.672;2023-02-27T01:28:13;7.68;;;2.90;;
58372;SDS011;44177;43.356;27.672;2023-02-27T01:30:39;9.90;;;2.90;;
58372;SDS011;44177;43.356;27.672;2023-02-27T01:33:05;6.10;;;2.80;;
58372;SDS011;44177;43.356;27.672;2023-02-27T01:35:31;5.57;;;2.63;;
58372;SDS011;44177;43.356;27.672;2023-02-27T01:37:56;7.38;;;2.60;;
58372;SDS011;44177;43.356;27.672;2023-02-27T01:40:22;9.48;;;2.63;;
58372;SDS011;44177;43.356;27.672;2023-02-27T01:42:47;4.43;;;2.38;;
58372;SDS011;44177;43.356;27.672;2023-02-27T01:45:23;6.72;;;2.58;;
58372;SDS011;44177;43.356;27.672;2023-02-27T01:47:50;7.13;;;2.50;;
58372;SDS011;44177;43.356;27.672;2023-02-27T01:50:19;4.85;;;2.40;;
58372;SDS011;44177;43.356;27.672;2023-02-27T01:52:47;6.85;;;2.42;;
58372;SDS011;44177;43.356;27.672;2023-02-27T01:55:17;7.95;;;3.22;;
58372;SDS011;44177;43.356;27.672;2023-02-27T01:57:44;6.47;;;2.40;;
58372;SDS011;44177;43.356;27.672;2023-02-27T02:00:11;5.78;;;2.38;;
58372;SDS011;44177;43.356;27.672;2023-02-27T02:02:38;5.22;;;2.50;;
58372;SDS011;44177;43.356;27.672;2023-02-27T02:05:08;6.90;;;2.60;;
58372;SDS011;44177;43.356;27.672;2023-02-27T02:07:34;5.78;;;2.40;;
58372;SDS011;44177;43.356;27.672;2023-02-27T02:10:02;4.45;;;2.08;;
58372;SDS011;44177;43.356;27.672;2023-02-27T02:12:34;8.73;;;2.85;;
58372;SDS011;44177;43.356;27.672;2023-02-27T02:15:02;4.90;;;2.50;;
58372;SDS011;44177;43.356;27.672;2023-02-27T02:17:45;5.63;;;2.20;;
58372;SDS011;44177;43.356;27.672;2023-02-27T02:34:25;6.07;;;2.70;;
58372;SDS011;44177;43.356;27.672;2023-02-27T02:42:46;7.55;;;2.53;;
58372;SDS011;44177;43.356;27.672;2023-02-27T02:45:26;5.80;;;2.45;;
58372;SDS011;44177;43.356;27.672;2023-02-27T02:50:55;7.72;;;2.38;;
58372;SDS011;44177;43.356;27.672;2023-02-27T02:53:36;6.28;;;2.53;;
58372;SDS011;44177;43.356;27.672;2023-02-27T02:59:05;5.95;;;2.72;;
58372;SDS011;44177;43.356;27.672;2023-02-27T03:04:05;5.53;;;2.47;;
58372;SDS011;44177;43.356;27.672;2023-02-27T03:06:37;7.00;;;2.25;;
58372;SDS011;44177;43.356;27.672;2023-02-27T03:09:17;8.23;;;2.53;;
58372;SDS011;44177;43.356;27.672;2023-02-27T03:11:50;4.22;;;2.30;;
58372;SDS011;44177;43.356;27.672;2023-02-27T03:14:20;6.72;;;2.58;;
58372;SDS011;44177;43.356;27.672;2023-02-27T03:16:54;7.22;;;2.30;;
58372;SDS011;44177;43.356;27.672;2023-02-27T03:19:26;6.90;;;2.17;;
58372;SDS011;44177;43.356;27.672;2023-02-27T03:24:30;4.53;;;2.35;;
58372;SDS011;44177;43.356;27.672;2023-02-27T03:26:59;5.47;;;2.40;;
58372;SDS011;44177;43.356;27.672;2023-02-27T03:29:32;5.45;;;2.30;;
58372;SDS011;44177;43.356;27.672;2023-02-27T03:32:05;5.45;;;2.22;;
58372;SDS011;44177;43.356;27.672;2023-02-27T03:34:36;4.53;;;2.10;;
58372;SDS011;44177;43.356;27.672;2023-02-27T03:39:49;5.97;;;2.75;;
58372;SDS011;44177;43.356;27.672;2023-02-27T03:48:03;4.47;;;1.95;;
58372;SDS011;44177;43.356;27.672;2023-02-27T03:50:30;5.22;;;2.40;;
58372;SDS011;44177;43.356;27.672;2023-02-27T03:52:57;5.18;;;2.53;;
58372;SDS011;44177;43.356;27.672;2023-02-27T03:55:31;5.60;;;2.55;;
58372;SDS011;44177;43.356;27.672;2023-02-27T03:57:59;5.55;;;2.38;;
58372;SDS011;44177;43.356;27.672;2023-02-27T04:00:25;5.88;;;2.22;;
58372;SDS011;44177;43.356;27.672;2023-02-27T04:02:51;5.72;;;2.00;;
58372;SDS011;44177;43.356;27.672;2023-02-27T04:05:20;7.68;;;2.45;;
58372;SDS011;44177;43.356;27.672;2023-02-27T04:08:00;5.10;;;2.28;;
58372;SDS011;44177;43.356;27.672;2023-02-27T04:11:07;3.97;;;1.85;;
58372;SDS011;44177;43.356;27.672;2023-02-27T04:13:31;3.47;;;2.10;;
58372;SDS011;44177;43.356;27.672;2023-02-27T04:18:57;4.80;;;2.25;;
58372;SDS011;44177;43.356;27.672;2023-02-27T04:21:31;3.70;;;2.20;;
58372;SDS011;44177;43.356;27.672;2023-02-27T04:26:51;5.75;;;2.20;;
58372;SDS011;44177;43.356;27.672;2023-02-27T04:29:43;4.63;;;2.25;;
58372;SDS011;44177;43.356;27.672;2023-02-27T04:32:23;5.07;;;2.30;;
58372;SDS011;44177;43.356;27.672;2023-02-27T04:37:27;5.75;;;2.30;;
58372;SDS011;44177;43.356;27.672;2023-02-27T04:42:48;4.13;;;2.35;;
58372;SDS011;44177;43.356;27.672;2023-02-27T04:45:19;3.95;;;2.10;;
58372;SDS011;44177;43.356;27.672;2023-02-27T04:47:57;10.02;;;2.80;;
58372;SDS011;44177;43.356;27.672;2023-02-27T04:50:35;4.50;;;2.15;;
58372;SDS011;44177;43.356;27.672;2023-02-27T04:53:15;4.88;;;2.22;;
58372;SDS011;44177;43.356;27.672;2023-02-27T04:55:46;5.57;;;2.20;;
58372;SDS011;44177;43.356;27.672;2023-02-27T04:58:24;6.45;;;2.33;;
58372;SDS011;44177;43.356;27.672;2023-02-27T05:00:57;7.05;;;2.10;;
58372;SDS011;44177;43.356;27.672;2023-02-27T05:03:29;7.68;;;2.65;;
58372;SDS011;44177;43.356;27.672;2023-02-27T05:05:59;3.85;;;2.40;;
58372;SDS011;44177;43.356;27.672;2023-02-27T05:08:32;5.30;;;2.30;;
58372;SDS011;44177;43.356;27.672;2023-02-27T05:13:40;5.68;;;2.47;;
58372;SDS011;44177;43.356;27.672;2023-02-27T05:16:21;5.45;;;2.50;;
58372;SDS011;44177;43.356;27.672;2023-02-27T05:18:47;7.28;;;2.22;;
58372;SDS011;44177;43.356;27.672;2023-02-27T05:29:50;7.15;;;2.55;;
58372;SDS011;44177;43.356;27.672;2023-02-27T05:32:33;6.15;;;2.40;;
58372;SDS011;44177;43.356;27.672;2023-02-27T05:35:04;5.20;;;2.35;;
58372;SDS011;44177;43.356;27.672;2023-02-27T05:40:20;5.30;;;2.40;;
58372;SDS011;44177;43.356;27.672;2023-02-27T05:42:57;7.60;;;2.30;;
58372;SDS011;44177;43.356;27.672;2023-02-27T05:45:29;4.28;;;2.30;;
58372;SDS011;44177;43.356;27.672;2023-02-27T05:48:00;5.00;;;2.53;;
58372;SDS011;44177;43.356;27.672;2023-02-27T05:50:32;6.28;;;2.47;;
58372;SDS011;44177;43.356;27.672;2023-02-27T05:53:01;5.15;;;2.40;;
58372;SDS011;44177;43.356;27.672;2023-02-27T06:00:43;6.82;;;2.45;;
58372;SDS011;44177;43.356;27.672;2023-02-27T06:05:42;4.30;;;2.55;;
58372;SDS011;44177;43.356;27.672;2023-02-27T06:08:08;4.40;;;2.50;;
58372;SDS011;44177;43.356;27.672;2023-02-27T06:10:35;4.75;;;2.60;;
58372;SDS011;44177;43.356;27.672;2023-02-27T06:13:01;6.95;;;2.58;;
58372;SDS011;44177;43.356;27.672;2023-02-27T06:15:26;4.45;;;2.40;;
58372;SDS011;44177;43.356;27.672;2023-02-27T06:17:52;4.50;;;2.10;;
58372;SDS011;44177;43.356;27.672;2023-02-27T06:20:18;5.90;;;2.28;;
58372;SDS011;44177;43.356;27.672;2023-02-27T06:22:44;3.72;;;2.22;;
58372;SDS011;44177;43.356;27.672;2023-02-27T06:25:09;9.70;;;3.13;;
58372;SDS011;44177;43.356;27.672;2023-02-27T06:27:35;3.35;;;2.15;;
58372;SDS011;44177;43.356;27.672;2023-02-27T06:30:00;9.38;;;3.00;;
58372;SDS011;44177;43.356;27.672;2023-02-27T06:32:26;6.30;;;2.65;;
58372;SDS011;44177;43.356;27.672;2023-02-27T06:34:52;6.00;;;2.65;;
58372;SDS011;44177;43.356;27.672;2023-02-27T06:37:18;6.43;;;2.58;;
58372;SDS011;44177;43.356;27.672;2023-02-27T06:39:45;4.57;;;2.70;;
58372;SDS011;44177;43.356;27.672;2023-02-27T06:42:12;6.28;;;2.47;;
58372;SDS011;44177;43.356;27.672;2023-02-27T06:44:38;6.15;;;2.67;;
58372;SDS011;44177;43.356;27.672;2023-02-27T06:47:03;6.22;;;2.70;;
58372;SDS011;44177;43.356;27.672;2023-02-27T06:49:29;5.07;;;2.33;;
58372;SDS011;44177;43.356;27.672;2023-02-27T06:51:54;5.60;;;2.35;;
58372;SDS011;44177;43.356;27.672;2023-02-27T06:54:19;5.18;;;2.58;;
58372;SDS011;44177;43.356;27.672;2023-02-27T06:56:45;6.25;;;2.85;;
58372;SDS011;44177;43.356;27.672;2023-02-27T06:59:12;4.20;;;2.50;;
58372;SDS011;44177;43.356;27.672;2023-02-27T07:01:37;4.55;;;2.35;;
58372;SDS011;44177;43.356;27.672;2023-02-27T07:04:03;5.20;;;2.58;;
58372;SDS011;44177;43.356;27.672;2023-02-27T07:06:28;7.47;;;2.80;;
58372;SDS011;44177;43.356;27.672;2023-02-27T07:08:53;8.25;;;2.78;;
58372;SDS011;44177;43.356;27.672;2023-02-27T07:11:19;6.50;;;3.40;;
58372;SDS011;44177;43.356;27.672;2023-02-27T07:13:45;6.43;;;2.90;;
58372;SDS011;44177;43.356;27.672;2023-02-27T07:16:10;6.45;;;2.40;;
58372;SDS011;44177;43.356;27.672;2023-02-27T07:18:35;7.55;;;2.50;;
58372;SDS011;44177;43.356;27.672;2023-02-27T07:21:01;5.20;;;2.60;;
58372;SDS011;44177;43.356;27.672;2023-02-27T07:23:27;10.45;;;2.78;;
58372;SDS011;44177;43.356;27.672;2023-02-27T07:25:52;6.82;;;2.85;;
58372;SDS011;44177;43.356;27.672;2023-02-27T07:28:18;6.18;;;2.75;;
58372;SDS011;44177;43.356;27.672;2023-02-27T07:30:44;8.40;;;3.20;;
58372;SDS011;44177;43.356;27.672;2023-02-27T07:33:09;6.55;;;2.65;;
58372;SDS011;44177;43.356;27.672;2023-02-27T07:35:35;5.63;;;2.50;;
58372;SDS011;44177;43.356;27.672;2023-02-27T07:38:01;8.27;;;2.78;;
58372;SDS011;44177;43.356;27.672;2023-02-27T07:40:27;6.05;;;2.58;;
58372;SDS011;44177;43.356;27.672;2023-02-27T07:42:52;6.18;;;2.70;;
58372;SDS011;44177;43.356;27.672;2023-02-27T07:45:18;5.65;;;2.42;;
58372;SDS011;44177;43.356;27.672;2023-02-27T07:47:44;8.43;;;3.00;;
58372;SDS011;44177;43.356;27.672;2023-02-27T07:50:10;5.07;;;2.97;;
58372;SDS011;44177;43.356;27.672;2023-02-27T07:52:41;6.45;;;2.80;;
58372;SDS011;44177;43.356;27.672;2023-02-27T07:55:07;7.40;;;2.15;;
58372;SDS011;44177;43.356;27.672;2023-02-27T07:57:33;9.57;;;2.75;;
58372;SDS011;44177;43.356;27.672;2023-02-27T07:59:59;7.60;;;2.92;;
58372;SDS011;44177;43.356;27.672;2023-02-27T08:02:24;11.40;;;2.85;;
58372;SDS011;44177;43.356;27.672;2023-02-27T08:04:50;11.80;;;2.45;;
58372;SDS011;44177;43.356;27.672;2023-02-27T08:07:16;14.73;;;4.20;;
58372;SDS011;44177;43.356;27.672;2023-02-27T08:09:42;12.60;;;3.85;;
58372;SDS011;44177;43.356;27.672;2023-02-27T08:12:08;12.30;;;4.30;;
58372;SDS011;44177;43.356;27.672;2023-02-27T08:14:33;13.75;;;4.55;;
58372;SDS011;44177;43.356;27.672;2023-02-27T08:16:58;14.07;;;4.97;;
58372;SDS011;44177;43.356;27.672;2023-02-27T08:19:24;15.68;;;4.97;;
58372;SDS011;44177;43.356;27.672;2023-02-27T08:21:50;11.85;;;4.55;;
58372;SDS011;44177;43.356;27.672;2023-02-27T08:24:15;13.75;;;5.20;;
58372;SDS011;44177;43.356;27.672;2023-02-27T08:26:41;25.42;;;5.82;;
58372;SDS011;44177;43.356;27.672;2023-02-27T08:29:06;25.55;;;6.40;;
58372;SDS011;44177;43.356;27.672;2023-02-27T08:31:32;27.42;;;7.15;;
58372;SDS011;44177;43.356;27.672;2023-02-27T08:33:57;25.23;;;6.80;;
58372;SDS011;44177;43.356;27.672;2023-02-27T08:36:23;23.15;;;6.50;;
58372;SDS011;44177;43.356;27.672;2023-02-27T08:38:48;28.17;;;6.03;;
58372;SDS011;44177;43.356;27.672;2023-02-27T08:41:14;17.08;;;6.20;;
58372;SDS011;44177;43.356;27.672;2023-02-27T08:43:39;21.40;;;6.00;;
58372;SDS011;44177;43.356;27.672;2023-02-27T08:46:05;21.33;;;5.60;;
58372;SDS011;44177;43.356;27.672;2023-02-27T08:48:30;19.48;;;5.20;;
58372;SDS011;44177;43.356;27.672;2023-02-27T08:50:56;13.18;;;4.90;;
58372;SDS011;44177;43.356;27.672;2023-02-27T08:53:21;18.33;;;5.10;;
58372;SDS011;44177;43.356;27.672;2023-02-27T08:55:50;20.58;;;4.97;;
58372;SDS011;44177;43.356;27.672;2023-02-27T08:58:16;12.38;;;4.93;;
58372;SDS011;44177;43.356;27.672;2023-02-27T09:00:42;10.43;;;4.80;;
58372;SDS011;44177;43.356;27.672;2023-02-27T09:03:08;17.48;;;4.90;;
58372;SDS011;44177;43.356;27.672;2023-02-27T09:05:33;13.43;;;4.32;;
58372;SDS011;44177;43.356;27.672;2023-02-27T09:08:00;17.40;;;4.70;;
58372;SDS011;44177;43.356;27.672;2023-02-27T09:10:26;14.40;;;4.53;;
58372;SDS011;44177;43.356;27.672;2023-02-27T09:12:52;16.88;;;7.22;;
58372;SDS011;44177;43.356;27.672;2023-02-27T09:15:17;26.33;;;12.70;;
58372;SDS011;44177;43.356;27.672;2023-02-27T09:17:43;25.50;;;14.73;;
58372;SDS011;44177;43.356;27.672;2023-02-27T09:20:09;32.00;;;19.25;;
58372;SDS011;44177;43.356;27.672;2023-02-27T09:22:36;30.05;;;18.05;;
58372;SDS011;44177;43.356;27.672;2023-02-27T09:25:02;24.08;;;15.55;;
58372;SDS011;44177;43.356;27.672;2023-02-27T09:27:28;25.67;;;14.65;;
58372;SDS011;44177;43.356;27.672;2023-02-27T09:29:53;23.13;;;13.70;;
58372;SDS011;44177;43.356;27.672;2023-02-27T09:32:21;20.50;;;11.75;;
58372;SDS011;44177;43.356;27.672;2023-02-27T09:34:47;20.50;;;11.50;;
58372;SDS011;44177;43.356;27.672;2023-02-27T09:37:12;18.33;;;10.75;;
58372;SDS011;44177;43.356;27.672;2023-02-27T09:39:38;16.15;;;10.48;;
58372;SDS011;44177;43.356;27.672;2023-02-27T09:42:04;18.98;;;10.13;;
58372;SDS011;44177;43.356;27.672;2023-02-27T09:44:40;15.27;;;8.43;;
58372;SDS011;44177;43.356;27.672;2023-02-27T09:47:18;13.60;;;8.82;;
58372;SDS011;44177;43.356;27.672;2023-02-27T09:52:17;11.88;;;8.50;;
58372;SDS011;44177;43.356;27.672;2023-02-27T09:54:42;12.98;;;7.82;;
58372;SDS011;44177;43.356;27.672;2023-02-27T09:57:10;16.35;;;7.75;;
58372;SDS011;44177;43.356;27.672;2023-02-27T09:59:43;11.80;;;7.30;;
58372;SDS011;44177;43.356;27.672;2023-02-27T10:05:49;13.40;;;7.10;;
58372;SDS011;44177;43.356;27.672;2023-02-27T10:16:02;9.52;;;5.90;;
58372;SDS011;44177;43.356;27.672;2023-02-27T10:18:34;11.30;;;6.20;;
58372;SDS011;44177;43.356;27.672;2023-02-27T10:21:13;11.55;;;6.20;;
58372;SDS011;44177;43.356;27.672;2023-02-27T10:26:31;8.90;;;5.15;;
58372;SDS011;44177;43.356;27.672;2023-02-27T10:29:18;9.85;;;5.18;;
58372;SDS011;44177;43.356;27.672;2023-02-27T10:31:53;8.45;;;5.00;;
58372;SDS011;44177;43.356;27.672;2023-02-27T10:34:24;7.40;;;5.05;;
58372;SDS011;44177;43.356;27.672;2023-02-27T10:36:53;7.22;;;4.88;;
58372;SDS011;44177;43.356;27.672;2023-02-27T10:39:19;9.23;;;5.00;;
58372;SDS011;44177;43.356;27.672;2023-02-27T10:41:46;6.97;;;4.53;;
58372;SDS011;44177;43.356;27.672;2023-02-27T10:44:15;7.75;;;4.60;;
58372;SDS011;44177;43.356;27.672;2023-02-27T10:46:42;8.52;;;5.03;;
58372;SDS011;44177;43.356;27.672;2023-02-27T10:49:11;7.13;;;4.00;;
58372;SDS011;44177;43.356;27.672;2023-02-27T10:51:39;7.07;;;3.80;;
58372;SDS011;44177;43.356;27.672;2023-02-27T10:56:44;8.27;;;3.83;;
58372;SDS011;44177;43.356;27.672;2023-02-27T11:02:29;5.68;;;3.70;;
58372;SDS011;44177;43.356;27.672;2023-02-27T11:04:59;4.70;;;3.58;;
58372;SDS011;44177;43.356;27.672;2023-02-27T11:08:10;6.90;;;3.30;;
58372;SDS011;44177;43.356;27.672;2023-02-27T11:10:25;5.15;;;3.35;;
58372;SDS011;44177;43.356;27.672;2023-02-27T11:13:17;7.55;;;3.85;;
58372;SDS011;44177;43.356;27.672;2023-02-27T11:15:45;4.88;;;3.35;;
58372;SDS011;44177;43.356;27.672;2023-02-27T11:18:48;4.90;;;3.60;;
58372;SDS011;44177;43.356;27.672;2023-02-27T11:23:51;5.32;;;3.60;;
58372;SDS011;44177;43.356;27.672;2023-02-27T11:26:29;4.85;;;3.42;;
58372;SDS011;44177;43.356;27.672;2023-02-27T11:31:39;7.25;;;3.58;;
58372;SDS011;44177;43.356;27.672;2023-02-27T11:34:26;5.07;;;3.28;;
58372;SDS011;44177;43.356;27.672;2023-02-27T11:36:54;4.60;;;3.45;;
58372;SDS011;44177;43.356;27.672;2023-02-27T11:42:04;5.93;;;4.00;;
58372;SDS011;44177;43.356;27.672;2023-02-27T11:44:36;6.20;;;3.30;;
58372;SDS011;44177;43.356;27.672;2023-02-27T11:47:14;5.68;;;3.50;;
58372;SDS011;44177;43.356;27.672;2023-02-27T11:50:04;4.20;;;3.33;;
58372;SDS011;44177;43.356;27.672;2023-02-27T11:52:57;5.97;;;3.53;;
58372;SDS011;44177;43.356;27.672;2023-02-27T11:55:27;5.47;;;3.50;;
58372;SDS011;44177;43.356;27.672;2023-02-27T11:58:04;5.55;;;3.33;;
58372;SDS011;44177;43.356;27.672;2023-02-27T12:00:38;8.00;;;3.60;;
58372;SDS011;44177;43.356;27.672;2023-02-27T12:03:27;3.92;;;3.42;;
58372;SDS011;44177;43.356;27.672;2023-02-27T12:06:06;5.07;;;3.33;;
58372;SDS011;44177;43.356;27.672;2023-02-27T12:08:44;4.95;;;2.92;;
58372;SDS011;44177;43.356;27.672;2023-02-27T12:11:19;4.80;;;3.30;;
58372;SDS011;44177;43.356;27.672;2023-02-27T12:13:58;6.03;;;3.53;;
58372;SDS011;44177;43.356;27.672;2023-02-27T12:16:30;3.72;;;3.30;;
58372;SDS011;44177;43.356;27.672;2023-02-27T12:19:14;4.50;;;3.60;;
58372;SDS011;44177;43.356;27.672;2023-02-27T12:21:46;5.97;;;3.60;;
58372;SDS011;44177;43.356;27.672;2023-02-27T12:26:48;3.92;;;3.33;;
58372;SDS011;44177;43.356;27.672;2023-02-27T12:29:33;6.57;;;3.70;;
58372;SDS011;44177;43.356;27.672;2023-02-27T12:35:12;4.07;;;3.28;;
58372;SDS011;44177;43.356;27.672;2023-02-27T12:37:39;4.90;;;3.65;;
58372;SDS011;44177;43.356;27.672;2023-02-27T12:40:04;5.50;;;3.35;;
58372;SDS011;44177;43.356;27.672;2023-02-27T12:50:33;3.88;;;3.40;;
58372;SDS011;44177;43.356;27.672;2023-02-27T12:53:17;4.93;;;3.40;;
58372;SDS011;44177;43.356;27.672;2023-02-27T12:55:52;5.40;;;3.40;;
58372;SDS011;44177;43.356;27.672;2023-02-27T12:58:27;6.57;;;3.95;;
58372;SDS011;44177;43.356;27.672;2023-02-27T13:04:14;5.28;;;3.53;;
58372;SDS011;44177;43.356;27.672;2023-02-27T13:06:59;5.78;;;3.40;;
58372;SDS011;44177;43.356;27.672;2023-02-27T13:09:32;5.13;;;3.45;;
58372;SDS011;44177;43.356;27.672;2023-02-27T13:17:17;5.90;;;3.97;;
58372;SDS011;44177;43.356;27.672;2023-02-27T13:25:17;4.78;;;3.28;;
58372;SDS011;44177;43.356;27.672;2023-02-27T13:27:45;5.63;;;3.60;;
58372;SDS011;44177;43.356;27.672;2023-02-27T13:36:55;4.97;;;3.53;;
58372;SDS011;44177;43.356;27.672;2023-02-27T13:38:54;4.18;;;3.33;;
58372;SDS011;44177;43.356;27.672;2023-02-27T13:43:59;5.47;;;3.58;;
58372;SDS011;44177;43.356;27.672;2023-02-27T13:46:44;4.45;;;3.85;;
58372;SDS011;44177;43.356;27.672;2023-02-27T13:49:21;5.40;;;3.88;;
58372;SDS011;44177;43.356;27.672;2023-02-27T13:51:50;5.20;;;4.22;;
58372;SDS011;44177;43.356;27.672;2023-02-27T13:59:20;5.57;;;3.83;;
58372;SDS011;44177;43.356;27.672;2023-02-27T14:04:35;5.72;;;4.40;;
58372;SDS011;44177;43.356;27.672;2023-02-27T14:07:13;5.15;;;4.38;;
58372;SDS011;44177;43.356;27.672;2023-02-27T14:09:46;6.07;;;4.50;;
58372;SDS011;44177;43.356;27.672;2023-02-27T14:17:56;7.00;;;4.60;;
58372;SDS011;44177;43.356;27.672;2023-02-27T14:25:51;6.03;;;4.47;;
58372;SDS011;44177;43.356;27.672;2023-02-27T14:28:22;5.65;;;4.55;;
58372;SDS011;44177;43.356;27.672;2023-02-27T14:31:05;5.15;;;4.00;;
58372;SDS011;44177;43.356;27.672;2023-02-27T14:33:51;5.85;;;4.75;;
58372;SDS011;44177;43.356;27.672;2023-02-27T14:36:24;6.60;;;4.68;;
58372;SDS011;44177;43.356;27.672;2023-02-27T14:38:52;5.18;;;4.57;;
58372;SDS011;44177;43.356;27.672;2023-02-27T14:44:17;6.68;;;5.07;;
58372;SDS011;44177;43.356;27.672;2023-02-27T14:46:43;7.13;;;5.22;;
58372;SDS011;44177;43.356;27.672;2023-02-27T14:54:38;7.28;;;5.38;;
58372;SDS011;44177;43.356;27.672;2023-02-27T14:57:05;5.88;;;4.82;;
58372;SDS011;44177;43.356;27.672;2023-02-27T15:01:58;6.97;;;5.45;;
58372;SDS011;44177;43.356;27.672;2023-02-27T15:04:31;6.32;;;5.00;;
58372;SDS011;44177;43.356;27.672;2023-02-27T15:06:57;7.60;;;5.60;;
58372;SDS011;44177;43.356;27.672;2023-02-27T15:09:34;7.05;;;5.65;;
58372;SDS011;44177;43.356;27.672;2023-02-27T15:12:06;9.00;;;5.85;;
58372;SDS011;44177;43.356;27.672;2023-02-27T15:14:34;6.78;;;5.57;;
58372;SDS011;44177;43.356;27.672;2023-02-27T15:17:03;7.45;;;6.32;;
58372;SDS011;44177;43.356;27.672;2023-02-27T15:19:43;7.72;;;5.85;;
58372;SDS011;44177;43.356;27.672;2023-02-27T15:22:24;7.30;;;5.93;;
58372;SDS011;44177;43.356;27.672;2023-02-27T15:24:56;7.35;;;6.18;;
58372;SDS011;44177;43.356;27.672;2023-02-27T15:27:23;8.55;;;6.13;;
58372;SDS011;44177;43.356;27.672;2023-02-27T15:34:45;8.45;;;6.70;;
58372;SDS011;44177;43.356;27.672;2023-02-27T15:40:10;7.70;;;5.93;;
58372;SDS011;44177;43.356;27.672;2023-02-27T15:42:42;8.10;;;6.53;;
58372;SDS011;44177;43.356;27.672;2023-02-27T15:45:09;10.55;;;6.80;;
58372;SDS011;44177;43.356;27.672;2023-02-27T15:47:43;7.95;;;6.55;;
58372;SDS011;44177;43.356;27.672;2023-02-27T15:52:42;8.80;;;6.18;;
58372;SDS011;44177;43.356;27.672;2023-02-27T15:55:16;8.27;;;6.22;;
58372;SDS011;44177;43.356;27.672;2023-02-27T15:57:48;9.40;;;6.30;;
58372;SDS011;44177;43.356;27.672;2023-02-27T16:00:15;7.95;;;6.40;;
58372;SDS011;44177;43.356;27.672;2023-02-27T16:02:42;7.97;;;6.00;;
58372;SDS011;44177;43.356;27.672;2023-02-27T16:05:19;7.88;;;6.22;;
58372;SDS011;44177;43.356;27.672;2023-02-27T16:07:47;9.55;;;6.82;;
58372;SDS011;44177;43.356;27.672;2023-02-27T16:10:24;7.72;;;6.07;;
58372;SDS011;44177;43.356;27.672;2023-02-27T16:12:52;8.40;;;6.78;;
58372;SDS011;44177;43.356;27.672;2023-02-27T16:15:20;8.63;;;6.18;;
58372;SDS011;44177;43.356;27.672;2023-02-27T16:20:47;8.02;;;6.45;;
58372;SDS011;44177;43.356;27.672;2023-02-27T16:26:31;9.75;;;6.80;;
58372;SDS011;44177;43.356;27.672;2023-02-27T16:28:42;10.95;;;7.35;;
58372;SDS011;44177;43.356;27.672;2023-02-27T16:33:54;9.23;;;6.40;;
58372;SDS011;44177;43.356;27.672;2023-02-27T16:36:27;8.70;;;6.35;;
58372;SDS011;44177;43.356;27.672;2023-02-27T16:38:54;9.88;;;6.93;;
58372;SDS011;44177;43.356;27.672;2023-02-27T16:41:21;8.63;;;6.70;;
58372;SDS011;44177;43.356;27.672;2023-02-27T16:43:48;8.35;;;6.35;;
58372;SDS011;44177;43.356;27.672;2023-02-27T16:46:15;9.93;;;6.50;;
58372;SDS011;44177;43.356;27.672;2023-02-27T16:48:48;7.10;;;6.20;;
58372;SDS011;44177;43.356;27.672;2023-02-27T16:51:20;8.23;;;6.63;;
58372;SDS011;44177;43.356;27.672;2023-02-27T16:53:49;8.75;;;6.53;;
58372;SDS011;44177;43.356;27.672;2023-02-27T16:56:15;8.77;;;6.60;;
58372;SDS011;44177;43.356;27.672;2023-02-27T16:58:42;8.98;;;6.47;;
58372;SDS011;44177;43.356;27.672;2023-02-27T17:01:08;10.27;;;6.68;;
58372;SDS011;44177;43.356;27.672;2023-02-27T17:03:37;8.32;;;6.43;;
58372;SDS011;44177;43.356;27.672;2023-02-27T17:06:03;8.38;;;6.78;;
58372;SDS011;44177;43.356;27.672;2023-02-27T17:08:29;9.25;;;6.70;;
58372;SDS011;44177;43.356;27.672;2023-02-27T17:10:55;7.88;;;6.18;;
58372;SDS011;44177;43.356;27.672;2023-02-27T17:13:22;9.35;;;6.63;;
58372;SDS011;44177;43.356;27.672;2023-02-27T17:15:48;7.68;;;6.53;;
58372;SDS011;44177;43.356;27.672;2023-02-27T17:18:13;9.45;;;6.60;;
58372;SDS011;44177;43.356;27.672;2023-02-27T17:20:39;10.23;;;7.03;;
58372;SDS011;44177;43.356;27.672;2023-02-27T17:23:11;6.78;;;6.00;;
58372;SDS011;44177;43.356;27.672;2023-02-27T17:25:36;8.05;;;6.45;;
58372;SDS011;44177;43.356;27.672;2023-02-27T17:28:03;8.50;;;6.00;;
58372;SDS011;44177;43.356;27.672;2023-02-27T17:30:29;7.90;;;6.50;;
58372;SDS011;44177;43.356;27.672;2023-02-27T17:32:55;8.98;;;6.30;;
58372;SDS011;44177;43.356;27.672;2023-02-27T17:35:20;8.80;;;6.35;;
58372;SDS011;44177;43.356;27.672;2023-02-27T17:37:46;8.68;;;6.15;;
58372;SDS011;44177;43.356;27.672;2023-02-27T17:40:11;8.18;;;6.38;;
58372;SDS011;44177;43.356;27.672;2023-02-27T17:42:37;7.70;;;6.45;;
58372;SDS011;44177;43.356;27.672;2023-02-27T17:45:03;11.93;;;6.53;;
58372;SDS011;44177;43.356;27.672;2023-02-27T17:47:31;9.00;;;6.25;;
58372;SDS011;44177;43.356;27.672;2023-02-27T17:49:57;8.77;;;6.45;;
58372;SDS011;44177;43.356;27.672;2023-02-27T17:52:22;7.60;;;6.18;;